This is the latest recevied weather packets stored in our database for station/object KG7MRB. If no packets are shown the sender has not sent any weather packets the latest 10 day(s).
| Time | Temp. | Humidity | Pressure | Rain* | Wind** | Luminosity | Snow |
|---|---|---|---|---|---|---|---|
| 1777491045 | 18.33° C | 54% | 1042.5 hPa | 0 mm | - | 666 W/m² | - |
| 1777490740 | 18.33° C | 53% | 1042.6 hPa | 0 mm | - | 663 W/m² | - |
| 1777490438 | 18.33° C | 54% | 1042.8 hPa | 0 mm | - | 660 W/m² | - |
| 1777490134 | 18.33° C | 56% | 1042.7 hPa | 0 mm | - | 657 W/m² | - |
| 1777489832 | 18.89° C | 54% | 1042.6 hPa | 0 mm | - | 653 W/m² | - |
| 1777489528 | 18.89° C | 55% | 1042.7 hPa | 0 mm | - | 647 W/m² | - |
| 1777489225 | 17.22° C | 58% | 1042.8 hPa | 0 mm | - | 643 W/m² | - |
| 1777488922 | 17.22° C | 57% | 1042.8 hPa | 0 mm | - | 637 W/m² | - |
| 1777488619 | 17.22° C | 57% | 1042.7 hPa | 0 mm | - | 638 W/m² | - |
| 1777488317 | 16.67° C | 57% | 1042.9 hPa | 0 mm | - | 631 W/m² | - |
| 1777488015 | 17.22° C | 58% | 1042.9 hPa | 0 mm | - | 628 W/m² | - |
| 1777487713 | 16.67° C | 60% | 1042.9 hPa | 0 mm | - | 620 W/m² | - |
| 1777487410 | 16.67° C | 60% | 1043.2 hPa | 0 mm | - | 616 W/m² | - |
| 1777487107 | 17.22° C | 57% | 1043.1 hPa | 0 mm | - | 608 W/m² | - |
| 1777486803 | 16.11° C | 60% | 1043.3 hPa | 0 mm | - | 602 W/m² | - |
| 1777486501 | 16.67° C | 60% | 1043.2 hPa | 0 mm | - | 594 W/m² | - |
| 1777486198 | 16.11° C | 62% | 1043.2 hPa | 0 mm | - | 590 W/m² | - |
| 1777485896 | 15.56° C | 62% | 1043.4 hPa | 0 mm | - | 580 W/m² | - |
| 1777485591 | 16.67° C | 60% | 1043.2 hPa | 0 mm | - | 572 W/m² | - |
| 1777485287 | 16.11° C | 58% | 1043.2 hPa | 0 mm | - | 565 W/m² | - |
| 1777484983 | 15.56° C | 60% | 1043.3 hPa | 0 mm | - | 557 W/m² | - |
| 1777484681 | 15° C | 60% | 1043.4 hPa | 0 mm | - | 549 W/m² | - |
| 1777484377 | 15.56° C | 60% | 1043.3 hPa | 0 mm | - | 539 W/m² | - |
| 1777484073 | 15.56° C | 61% | 1043.2 hPa | 0 mm | - | 530 W/m² | - |
| 1777483769 | 15° C | 61% | 1043.4 hPa | 0 mm | - | 522 W/m² | - |
* Rain latest hour (hover to see other rain measurements)
** Current wind speed in m/s (hover to see current wind gust speed)